sensor_id;sensor_type;location;lat;lon;timestamp;pressure;altitude;pressure_sealevel;temperature;humidity
64080;BME280;51042;49.696;10.808;2022-11-23T00:01:26;97122.63;;;2.16;100.00
64080;BME280;51042;49.696;10.808;2022-11-23T00:03:54;97134.28;;;2.13;100.00
64080;BME280;51042;49.696;10.808;2022-11-23T00:06:22;97130.22;;;2.01;100.00
64080;BME280;51042;49.696;10.808;2022-11-23T00:08:49;97126.84;;;1.93;100.00
64080;BME280;51042;49.696;10.808;2022-11-23T00:11:15;97130.41;;;1.87;100.00
64080;BME280;51042;49.696;10.808;2022-11-23T00:13:41;97140.16;;;1.81;100.00
64080;BME280;51042;49.696;10.808;2022-11-23T00:16:08;97127.50;;;1.74;100.00
64080;BME280;51042;49.696;10.808;2022-11-23T00:18:39;97126.41;;;1.68;100.00
64080;BME280;51042;49.696;10.808;2022-11-23T00:21:08;97132.66;;;1.65;100.00
64080;BME280;51042;49.696;10.808;2022-11-23T00:23:35;97134.22;;;1.62;100.00
64080;BME280;51042;49.696;10.808;2022-11-23T00:26:01;97134.63;;;1.61;100.00
64080;BME280;51042;49.696;10.808;2022-11-23T00:28:27;97132.34;;;1.59;100.00
64080;BME280;51042;49.696;10.808;2022-11-23T00:30:52;97139.72;;;1.55;100.00
64080;BME280;51042;49.696;10.808;2022-11-23T00:33:18;97135.94;;;1.49;100.00
64080;BME280;51042;49.696;10.808;2022-11-23T00:35:43;97129.78;;;1.49;100.00
64080;BME280;51042;49.696;10.808;2022-11-23T00:38:09;97131.25;;;1.53;100.00
64080;BME280;51042;49.696;10.808;2022-11-23T00:40:34;97134.00;;;1.50;100.00
64080;BME280;51042;49.696;10.808;2022-11-23T00:43:00;97130.19;;;1.47;100.00
64080;BME280;51042;49.696;10.808;2022-11-23T00:45:25;97131.75;;;1.45;100.00
64080;BME280;51042;49.696;10.808;2022-11-23T00:47:50;97124.41;;;1.45;100.00
64080;BME280;51042;49.696;10.808;2022-11-23T00:50:16;97126.72;;;1.47;100.00
64080;BME280;51042;49.696;10.808;2022-11-23T00:52:41;97129.41;;;1.47;100.00
64080;BME280;51042;49.696;10.808;2022-11-23T00:55:06;97132.53;;;1.45;100.00
64080;BME280;51042;49.696;10.808;2022-11-23T00:57:32;97137.22;;;1.41;100.00
64080;BME280;51042;49.696;10.808;2022-11-23T00:59:58;97129.09;;;1.41;100.00
64080;BME280;51042;49.696;10.808;2022-11-23T01:02:23;97140.63;;;1.45;100.00
64080;BME280;51042;49.696;10.808;2022-11-23T01:04:49;97140.59;;;1.49;100.00
64080;BME280;51042;49.696;10.808;2022-11-23T01:07:14;97139.47;;;1.46;100.00
64080;BME280;51042;49.696;10.808;2022-11-23T01:09:39;97143.41;;;1.38;100.00
64080;BME280;51042;49.696;10.808;2022-11-23T01:12:05;97148.94;;;1.28;100.00
64080;BME280;51042;49.696;10.808;2022-11-23T01:14:30;97142.47;;;1.21;100.00
64080;BME280;51042;49.696;10.808;2022-11-23T01:16:56;97146.06;;;1.11;100.00
64080;BME280;51042;49.696;10.808;2022-11-23T01:19:21;97141.50;;;1.05;100.00
64080;BME280;51042;49.696;10.808;2022-11-23T01:21:46;97146.56;;;0.99;100.00
64080;BME280;51042;49.696;10.808;2022-11-23T01:24:16;97147.72;;;0.98;100.00
64080;BME280;51042;49.696;10.808;2022-11-23T01:26:43;97158.59;;;0.91;100.00
64080;BME280;51042;49.696;10.808;2022-11-23T01:29:09;97149.00;;;0.87;100.00
64080;BME280;51042;49.696;10.808;2022-11-23T01:31:35;97148.63;;;0.88;100.00
64080;BME280;51042;49.696;10.808;2022-11-23T01:34:02;97150.19;;;0.86;100.00
64080;BME280;51042;49.696;10.808;2022-11-23T01:36:29;97150.88;;;0.93;100.00
64080;BME280;51042;49.696;10.808;2022-11-23T01:38:56;97155.13;;;0.91;100.00
64080;BME280;51042;49.696;10.808;2022-11-23T01:41:28;97158.28;;;0.86;100.00
64080;BME280;51042;49.696;10.808;2022-11-23T01:43:59;97159.81;;;0.87;100.00
64080;BME280;51042;49.696;10.808;2022-11-23T01:46:24;97164.78;;;0.92;100.00
64080;BME280;51042;49.696;10.808;2022-11-23T01:51:43;97169.75;;;0.97;100.00
64080;BME280;51042;49.696;10.808;2022-11-23T01:54:16;97174.03;;;0.94;100.00
64080;BME280;51042;49.696;10.808;2022-11-23T01:56:46;97182.97;;;0.84;100.00
64080;BME280;51042;49.696;10.808;2022-11-23T01:59:19;97176.84;;;0.80;100.00
64080;BME280;51042;49.696;10.808;2022-11-23T02:01:45;97185.44;;;0.71;100.00
64080;BME280;51042;49.696;10.808;2022-11-23T02:04:13;97192.00;;;0.67;100.00
64080;BME280;51042;49.696;10.808;2022-11-23T02:06:43;97186.28;;;0.61;100.00
64080;BME280;51042;49.696;10.808;2022-11-23T02:09:12;97187.88;;;0.55;100.00
64080;BME280;51042;49.696;10.808;2022-11-23T02:11:39;97181.72;;;0.51;100.00
64080;BME280;51042;49.696;10.808;2022-11-23T02:14:04;97183.72;;;0.47;100.00
64080;BME280;51042;49.696;10.808;2022-11-23T02:16:30;97182.94;;;0.43;100.00
64080;BME280;51042;49.696;10.808;2022-11-23T02:18:55;97190.69;;;0.41;100.00
64080;BME280;51042;49.696;10.808;2022-11-23T02:21:20;97195.75;;;0.35;100.00
64080;BME280;51042;49.696;10.808;2022-11-23T02:29:00;97188.84;;;0.27;100.00
64080;BME280;51042;49.696;10.808;2022-11-23T02:31:30;97191.91;;;0.33;100.00
64080;BME280;51042;49.696;10.808;2022-11-23T02:33:56;97198.03;;;0.40;100.00
64080;BME280;51042;49.696;10.808;2022-11-23T02:38:56;97192.44;;;0.62;100.00
64080;BME280;51042;49.696;10.808;2022-11-23T02:41:25;97196.22;;;0.71;100.00
64080;BME280;51042;49.696;10.808;2022-11-23T02:43:51;97196.56;;;0.77;100.00
64080;BME280;51042;49.696;10.808;2022-11-23T02:46:20;97189.97;;;0.81;100.00
64080;BME280;51042;49.696;10.808;2022-11-23T02:48:45;97192.94;;;0.91;100.00
64080;BME280;51042;49.696;10.808;2022-11-23T02:51:11;97190.94;;;0.98;100.00
64080;BME280;51042;49.696;10.808;2022-11-23T02:53:36;97186.69;;;1.01;100.00
64080;BME280;51042;49.696;10.808;2022-11-23T02:56:01;97188.19;;;1.02;100.00
64080;BME280;51042;49.696;10.808;2022-11-23T02:58:27;97180.88;;;1.02;100.00
64080;BME280;51042;49.696;10.808;2022-11-23T03:00:52;97195.91;;;1.03;100.00
64080;BME280;51042;49.696;10.808;2022-11-23T03:03:17;97198.22;;;1.05;100.00
64080;BME280;51042;49.696;10.808;2022-11-23T03:05:43;97195.13;;;1.06;100.00
64080;BME280;51042;49.696;10.808;2022-11-23T03:08:09;97203.63;;;1.05;100.00
64080;BME280;51042;49.696;10.808;2022-11-23T03:10:34;97202.84;;;1.04;100.00
64080;BME280;51042;49.696;10.808;2022-11-23T03:12:59;97204.72;;;1.07;100.00
64080;BME280;51042;49.696;10.808;2022-11-23T03:15:25;97212.44;;;1.12;100.00
64080;BME280;51042;49.696;10.808;2022-11-23T03:17:50;97204.72;;;1.11;100.00
64080;BME280;51042;49.696;10.808;2022-11-23T03:20:16;97204.72;;;1.11;100.00
64080;BME280;51042;49.696;10.808;2022-11-23T03:22:42;97209.28;;;1.17;100.00
64080;BME280;51042;49.696;10.808;2022-11-23T03:25:07;97206.94;;;1.19;100.00
64080;BME280;51042;49.696;10.808;2022-11-23T03:27:33;97206.91;;;1.23;100.00
64080;BME280;51042;49.696;10.808;2022-11-23T03:29:59;97207.63;;;1.27;100.00
64080;BME280;51042;49.696;10.808;2022-11-23T03:32:24;97203.72;;;1.32;100.00
64080;BME280;51042;49.696;10.808;2022-11-23T03:34:49;97207.56;;;1.34;100.00
64080;BME280;51042;49.696;10.808;2022-11-23T03:37:15;97205.56;;;1.38;100.00
64080;BME280;51042;49.696;10.808;2022-11-23T03:39:40;97199.00;;;1.39;100.00
64080;BME280;51042;49.696;10.808;2022-11-23T03:42:05;97207.47;;;1.41;100.00
64080;BME280;51042;49.696;10.808;2022-11-23T03:44:31;97206.66;;;1.44;100.00
64080;BME280;51042;49.696;10.808;2022-11-23T03:46:56;97207.34;;;1.52;100.00
64080;BME280;51042;49.696;10.808;2022-11-23T03:49:22;97208.03;;;1.59;100.00
64080;BME280;51042;49.696;10.808;2022-11-23T03:51:47;97206.88;;;1.60;100.00
64080;BME280;51042;49.696;10.808;2022-11-23T03:54:13;97209.94;;;1.62;100.00
64080;BME280;51042;49.696;10.808;2022-11-23T03:56:38;97202.19;;;1.64;100.00
64080;BME280;51042;49.696;10.808;2022-11-23T03:59:03;97202.56;;;1.67;100.00
64080;BME280;51042;49.696;10.808;2022-11-23T04:01:29;97200.97;;;1.69;100.00
64080;BME280;51042;49.696;10.808;2022-11-23T04:03:54;97192.09;;;1.69;100.00
64080;BME280;51042;49.696;10.808;2022-11-23T04:06:19;97203.63;;;1.73;100.00
64080;BME280;51042;49.696;10.808;2022-11-23T04:08:44;97200.16;;;1.72;100.00
64080;BME280;51042;49.696;10.808;2022-11-23T04:11:10;97204.06;;;1.68;100.00
64080;BME280;51042;49.696;10.808;2022-11-23T04:13:35;97194.06;;;1.64;100.00
64080;BME280;51042;49.696;10.808;2022-11-23T04:16:00;97195.25;;;1.63;100.00
64080;BME280;51042;49.696;10.808;2022-11-23T04:18:26;97196.78;;;1.64;100.00
64080;BME280;51042;49.696;10.808;2022-11-23T04:20:51;97188.59;;;1.68;100.00
64080;BME280;51042;49.696;10.808;2022-11-23T04:23:16;97180.47;;;1.72;100.00
64080;BME280;51042;49.696;10.808;2022-11-23T04:25:42;97176.53;;;1.76;100.00
64080;BME280;51042;49.696;10.808;2022-11-23T04:28:07;97174.53;;;1.80;100.00
64080;BME280;51042;49.696;10.808;2022-11-23T04:30:33;97171.81;;;1.84;100.00
64080;BME280;51042;49.696;10.808;2022-11-23T04:32:58;97166.34;;;1.87;100.00
64080;BME280;51042;49.696;10.808;2022-11-23T04:35:24;97171.66;;;1.94;100.00
64080;BME280;51042;49.696;10.808;2022-11-23T04:37:49;97175.47;;;1.97;100.00
64080;BME280;51042;49.696;10.808;2022-11-23T04:40:14;97180.44;;;2.02;100.00
64080;BME280;51042;49.696;10.808;2022-11-23T04:42:40;97175.81;;;2.02;100.00
64080;BME280;51042;49.696;10.808;2022-11-23T04:45:05;97176.16;;;2.04;100.00
64080;BME280;51042;49.696;10.808;2022-11-23T04:47:31;97180.78;;;2.04;100.00
64080;BME280;51042;49.696;10.808;2022-11-23T04:49:56;97188.56;;;2.02;100.00
64080;BME280;51042;49.696;10.808;2022-11-23T04:52:22;97184.72;;;1.99;100.00
64080;BME280;51042;49.696;10.808;2022-11-23T04:54:47;97187.06;;;1.97;100.00
64080;BME280;51042;49.696;10.808;2022-11-23T04:57:12;97182.84;;;1.96;100.00
64080;BME280;51042;49.696;10.808;2022-11-23T04:59:38;97179.00;;;1.94;100.00
64080;BME280;51042;49.696;10.808;2022-11-23T05:02:03;97182.47;;;1.94;100.00
64080;BME280;51042;49.696;10.808;2022-11-23T05:04:29;97184.78;;;1.96;100.00
64080;BME280;51042;49.696;10.808;2022-11-23T05:06:54;97183.59;;;1.97;100.00
64080;BME280;51042;49.696;10.808;2022-11-23T05:09:19;97177.44;;;1.96;100.00
64080;BME280;51042;49.696;10.808;2022-11-23T05:11:44;97174.72;;;1.96;100.00
64080;BME280;51042;49.696;10.808;2022-11-23T05:14:10;97170.44;;;1.99;100.00
64080;BME280;51042;49.696;10.808;2022-11-23T05:16:35;97179.69;;;2.01;100.00
64080;BME280;51042;49.696;10.808;2022-11-23T05:19:00;97172.34;;;2.02;100.00
64080;BME280;51042;49.696;10.808;2022-11-23T05:21:26;97178.44;;;2.06;100.00
64080;BME280;51042;49.696;10.808;2022-11-23T05:23:51;97172.63;;;2.08;100.00
64080;BME280;51042;49.696;10.808;2022-11-23T05:26:17;97172.97;;;2.10;100.00
64080;BME280;51042;49.696;10.808;2022-11-23T05:28:42;97167.56;;;2.10;100.00
64080;BME280;51042;49.696;10.808;2022-11-23T05:31:07;97172.56;;;2.11;100.00
64080;BME280;51042;49.696;10.808;2022-11-23T05:33:33;97171.44;;;2.09;100.00
64080;BME280;51042;49.696;10.808;2022-11-23T05:35:59;97168.00;;;2.08;100.00
64080;BME280;51042;49.696;10.808;2022-11-23T05:38:24;97174.16;;;2.09;100.00
64080;BME280;51042;49.696;10.808;2022-11-23T05:40:49;97177.97;;;2.11;100.00
64080;BME280;51042;49.696;10.808;2022-11-23T05:43:15;97181.81;;;2.14;100.00
64080;BME280;51042;49.696;10.808;2022-11-23T05:45:40;97178.69;;;2.15;100.00
64080;BME280;51042;49.696;10.808;2022-11-23T05:48:05;97172.47;;;2.18;100.00
64080;BME280;51042;49.696;10.808;2022-11-23T05:50:31;97172.38;;;2.25;100.00
64080;BME280;51042;49.696;10.808;2022-11-23T05:52:57;97168.06;;;2.28;100.00
64080;BME280;51042;49.696;10.808;2022-11-23T05:55:23;97173.06;;;2.29;100.00
64080;BME280;51042;49.696;10.808;2022-11-23T05:57:49;97181.88;;;2.37;100.00
64080;BME280;51042;49.696;10.808;2022-11-23T06:00:15;97169.88;;;2.38;100.00
64080;BME280;51042;49.696;10.808;2022-11-23T06:02:41;97174.44;;;2.41;100.00
64080;BME280;51042;49.696;10.808;2022-11-23T06:05:07;97176.75;;;2.42;100.00
64080;BME280;51042;49.696;10.808;2022-11-23T06:07:33;97174.03;;;2.42;100.00
64080;BME280;51042;49.696;10.808;2022-11-23T06:09:59;97178.69;;;2.42;100.00
64080;BME280;51042;49.696;10.808;2022-11-23T06:12:26;97167.91;;;2.38;100.00
64080;BME280;51042;49.696;10.808;2022-11-23T06:14:52;97169.44;;;2.39;100.00
64080;BME280;51042;49.696;10.808;2022-11-23T06:17:17;97174.06;;;2.39;100.00
64080;BME280;51042;49.696;10.808;2022-11-23T06:19:43;97173.28;;;2.42;100.00
64080;BME280;51042;49.696;10.808;2022-11-23T06:22:08;97173.19;;;2.45;100.00
64080;BME280;51042;49.696;10.808;2022-11-23T06:24:33;97169.72;;;2.45;100.00
64080;BME280;51042;49.696;10.808;2022-11-23T06:26:59;97179.38;;;2.46;100.00
64080;BME280;51042;49.696;10.808;2022-11-23T06:29:24;97180.91;;;2.47;100.00
64080;BME280;51042;49.696;10.808;2022-11-23T06:31:49;97177.03;;;2.48;100.00
64080;BME280;51042;49.696;10.808;2022-11-23T06:34:15;97188.56;;;2.52;100.00
64080;BME280;51042;49.696;10.808;2022-11-23T06:36:40;97180.75;;;2.58;100.00
64080;BME280;51042;49.696;10.808;2022-11-23T06:39:07;97190.41;;;2.59;100.00
64080;BME280;51042;49.696;10.808;2022-11-23T06:41:32;97190.81;;;2.57;100.00
64080;BME280;51042;49.696;10.808;2022-11-23T06:43:58;97196.53;;;2.63;100.00
64080;BME280;51042;49.696;10.808;2022-11-23T06:46:23;97199.59;;;2.65;100.00
64080;BME280;51042;49.696;10.808;2022-11-23T06:48:48;97203.44;;;2.67;100.00
64080;BME280;51042;49.696;10.808;2022-11-23T06:51:14;97202.22;;;2.68;100.00
64080;BME280;51042;49.696;10.808;2022-11-23T06:53:39;97197.53;;;2.72;100.00
64080;BME280;51042;49.696;10.808;2022-11-23T06:56:05;97205.25;;;2.74;100.00
64080;BME280;51042;49.696;10.808;2022-11-23T06:58:32;97207.53;;;2.75;100.00
64080;BME280;51042;49.696;10.808;2022-11-23T07:01:01;97212.56;;;2.77;100.00
64080;BME280;51042;49.696;10.808;2022-11-23T07:03:33;97208.59;;;2.81;100.00
64080;BME280;51042;49.696;10.808;2022-11-23T07:06:03;97208.97;;;2.83;100.00
64080;BME280;51042;49.696;10.808;2022-11-23T07:08:29;97207.78;;;2.84;100.00
64080;BME280;51042;49.696;10.808;2022-11-23T07:10:58;97218.19;;;2.86;100.00
64080;BME280;51042;49.696;10.808;2022-11-23T07:13:24;97225.91;;;2.87;100.00
64080;BME280;51042;49.696;10.808;2022-11-23T07:15:50;97221.22;;;2.92;100.00
64080;BME280;51042;49.696;10.808;2022-11-23T07:18:15;97218.84;;;2.94;100.00
64080;BME280;51042;49.696;10.808;2022-11-23T07:20:41;97218.78;;;2.97;100.00
64080;BME280;51042;49.696;10.808;2022-11-23T07:23:08;97223.38;;;3.00;100.00
64080;BME280;51042;49.696;10.808;2022-11-23T07:25:35;97227.56;;;3.05;100.00
64080;BME280;51042;49.696;10.808;2022-11-23T07:28:02;97227.16;;;3.06;100.00
64080;BME280;51042;49.696;10.808;2022-11-23T07:30:29;97230.97;;;3.09;100.00
64080;BME280;51042;49.696;10.808;2022-11-23T07:32:59;97227.44;;;3.12;100.00
64080;BME280;51042;49.696;10.808;2022-11-23T07:35:25;97229.38;;;3.11;100.00
64080;BME280;51042;49.696;10.808;2022-11-23T07:37:51;97232.44;;;3.13;100.00
64080;BME280;51042;49.696;10.808;2022-11-23T07:40:16;97238.97;;;3.16;100.00
64080;BME280;51042;49.696;10.808;2022-11-23T07:42:41;97243.66;;;3.15;100.00
64080;BME280;51042;49.696;10.808;2022-11-23T07:45:07;97247.06;;;3.19;100.00
64080;BME280;51042;49.696;10.808;2022-11-23T07:47:33;97254.34;;;3.22;100.00
64080;BME280;51042;49.696;10.808;2022-11-23T07:49:58;97254.69;;;3.24;100.00
64080;BME280;51042;49.696;10.808;2022-11-23T07:52:24;97248.47;;;3.27;100.00
64080;BME280;51042;49.696;10.808;2022-11-23T07:54:49;97253.13;;;3.27;100.00
64080;BME280;51042;49.696;10.808;2022-11-23T07:57:15;97253.94;;;3.24;100.00
64080;BME280;51042;49.696;10.808;2022-11-23T07:59:40;97243.78;;;3.28;100.00
64080;BME280;51042;49.696;10.808;2022-11-23T08:02:08;97250.69;;;3.33;100.00
64080;BME280;51042;49.696;10.808;2022-11-23T08:04:36;97250.34;;;3.31;100.00
64080;BME280;51042;49.696;10.808;2022-11-23T08:07:01;97250.69;;;3.33;100.00
64080;BME280;51042;49.696;10.808;2022-11-23T08:09:27;97256.81;;;3.37;100.00
64080;BME280;51042;49.696;10.808;2022-11-23T08:11:53;97252.53;;;3.39;100.00
64080;BME280;51042;49.696;10.808;2022-11-23T08:14:18;97245.44;;;3.45;100.00
64080;BME280;51042;49.696;10.808;2022-11-23T08:16:47;97253.00;;;3.54;100.00
64080;BME280;51042;49.696;10.808;2022-11-23T08:19:13;97254.47;;;3.58;100.00
64080;BME280;51042;49.696;10.808;2022-11-23T08:21:39;97264.13;;;3.59;100.00
64080;BME280;51042;49.696;10.808;2022-11-23T08:24:04;97257.91;;;3.62;100.00
64080;BME280;51042;49.696;10.808;2022-11-23T08:26:30;97250.53;;;3.63;100.00
64080;BME280;51042;49.696;10.808;2022-11-23T08:28:55;97247.50;;;3.77;100.00
64080;BME280;51042;49.696;10.808;2022-11-23T08:31:21;97249.19;;;3.91;100.00
64080;BME280;51042;49.696;10.808;2022-11-23T08:33:47;97253.34;;;3.95;100.00
64080;BME280;51042;49.696;10.808;2022-11-23T08:36:12;97252.59;;;3.95;100.00
64080;BME280;51042;49.696;10.808;2022-11-23T08:38:37;97256.97;;;3.89;100.00
64080;BME280;51042;49.696;10.808;2022-11-23T08:41:03;97254.25;;;3.89;100.00
64080;BME280;51042;49.696;10.808;2022-11-23T08:43:29;97257.88;;;4.02;100.00
64080;BME280;51042;49.696;10.808;2022-11-23T08:45:55;97260.81;;;4.11;100.00
64080;BME280;51042;49.696;10.808;2022-11-23T08:48:22;97259.59;;;4.12;100.00
64080;BME280;51042;49.696;10.808;2022-11-23T08:50:47;97256.31;;;4.21;100.00
64080;BME280;51042;49.696;10.808;2022-11-23T08:53:13;97254.13;;;4.32;100.00
64080;BME280;51042;49.696;10.808;2022-11-23T08:55:38;97255.00;;;4.29;100.00
64080;BME280;51042;49.696;10.808;2022-11-23T08:58:03;97262.91;;;4.39;100.00
64080;BME280;51042;49.696;10.808;2022-11-23T09:00:29;97260.88;;;4.43;100.00
64080;BME280;51042;49.696;10.808;2022-11-23T09:02:54;97259.69;;;4.61;100.00
64080;BME280;51042;49.696;10.808;2022-11-23T09:05:22;97264.41;;;4.76;100.00
64080;BME280;51042;49.696;10.808;2022-11-23T09:07:48;97258.97;;;4.76;100.00
64080;BME280;51042;49.696;10.808;2022-11-23T09:10:14;97267.13;;;4.76;100.00
64080;BME280;51042;49.696;10.808;2022-11-23T09:12:39;97263.38;;;4.70;99.82
64080;BME280;51042;49.696;10.808;2022-11-23T09:15:05;97266.16;;;4.83;100.00
64080;BME280;51042;49.696;10.808;2022-11-23T09:17:31;97268.13;;;4.99;100.00
64080;BME280;51042;49.696;10.808;2022-11-23T09:19:56;97269.75;;;5.12;100.00
64080;BME280;51042;49.696;10.808;2022-11-23T09:22:22;97269.13;;;5.21;100.00
64080;BME280;51042;49.696;10.808;2022-11-23T09:24:47;97266.00;;;5.22;98.76
64080;BME280;51042;49.696;10.808;2022-11-23T09:27:12;97260.03;;;5.27;99.05
64080;BME280;51042;49.696;10.808;2022-11-23T09:29:38;97266.06;;;5.35;98.61
64080;BME280;51042;49.696;10.808;2022-11-23T09:32:03;97269.88;;;5.38;97.45
64080;BME280;51042;49.696;10.808;2022-11-23T09:34:28;97263.06;;;5.46;96.95
64080;BME280;51042;49.696;10.808;2022-11-23T09:36:55;97273.06;;;5.49;96.79
64080;BME280;51042;49.696;10.808;2022-11-23T09:39:21;97264.00;;;5.68;97.63
64080;BME280;51042;49.696;10.808;2022-11-23T09:41:52;97266.19;;;5.89;97.57
64080;BME280;51042;49.696;10.808;2022-11-23T09:50:29;97261.84;;;5.92;92.58
64080;BME280;51042;49.696;10.808;2022-11-23T09:53:09;97263.28;;;6.09;93.63
64080;BME280;51042;49.696;10.808;2022-11-23T09:55:43;97269.09;;;6.24;92.31
64080;BME280;51042;49.696;10.808;2022-11-23T09:58:15;97266.91;;;6.19;92.01
64080;BME280;51042;49.696;10.808;2022-11-23T10:00:54;97258.66;;;6.35;91.63
64080;BME280;51042;49.696;10.808;2022-11-23T10:03:26;97255.38;;;6.27;91.29
64080;BME280;51042;49.696;10.808;2022-11-23T10:05:57;97261.16;;;6.42;91.67
64080;BME280;51042;49.696;10.808;2022-11-23T10:08:34;97258.97;;;6.49;89.26
64080;BME280;51042;49.696;10.808;2022-11-23T10:13:42;97257.91;;;6.72;90.20
64080;BME280;51042;49.696;10.808;2022-11-23T10:22:07;97242.59;;;7.00;88.18
64080;BME280;51042;49.696;10.808;2022-11-23T10:24:41;97239.16;;;7.21;88.08
64080;BME280;51042;49.696;10.808;2022-11-23T10:27:12;97243.38;;;7.35;87.44
64080;BME280;51042;49.696;10.808;2022-11-23T10:29:41;97234.13;;;7.32;85.54
64080;BME280;51042;49.696;10.808;2022-11-23T10:37:40;97235.31;;;7.31;82.46
64080;BME280;51042;49.696;10.808;2022-11-23T10:42:52;97222.56;;;7.28;84.12
64080;BME280;51042;49.696;10.808;2022-11-23T10:45:22;97220.75;;;7.47;84.19
64080;BME280;51042;49.696;10.808;2022-11-23T10:53:18;97215.19;;;7.51;84.06
64080;BME280;51042;49.696;10.808;2022-11-23T10:55:54;97219.25;;;7.68;84.00
64080;BME280;51042;49.696;10.808;2022-11-23T10:58:31;97220.56;;;7.85;83.03
64080;BME280;51042;49.696;10.808;2022-11-23T11:01:02;97221.28;;;7.98;82.90
64080;BME280;51042;49.696;10.808;2022-11-23T11:03:30;97221.81;;;8.15;81.70
64080;BME280;51042;49.696;10.808;2022-11-23T11:05:57;97221.63;;;8.09;81.07
64080;BME280;51042;49.696;10.808;2022-11-23T11:08:32;97227.28;;;8.15;81.28
64080;BME280;51042;49.696;10.808;2022-11-23T11:11:07;97214.19;;;8.32;80.67
64080;BME280;51042;49.696;10.808;2022-11-23T11:13:45;97217.84;;;8.38;80.66
64080;BME280;51042;49.696;10.808;2022-11-23T11:16:19;97207.31;;;8.05;77.88
64080;BME280;51042;49.696;10.808;2022-11-23T11:18:45;97209.88;;;8.00;80.61
64080;BME280;51042;49.696;10.808;2022-11-23T11:23:56;97217.25;;;8.43;80.15
64080;BME280;51042;49.696;10.808;2022-11-23T11:26:24;97211.63;;;8.37;80.55
64080;BME280;51042;49.696;10.808;2022-11-23T11:28:52;97211.19;;;8.39;77.49
64080;BME280;51042;49.696;10.808;2022-11-23T11:31:23;97201.63;;;8.43;78.59
64080;BME280;51042;49.696;10.808;2022-11-23T11:36:43;97195.38;;;8.34;76.52
64080;BME280;51042;49.696;10.808;2022-11-23T11:39:17;97196.75;;;8.38;78.27
64080;BME280;51042;49.696;10.808;2022-11-23T11:41:48;97192.34;;;8.81;78.86
64080;BME280;51042;49.696;10.808;2022-11-23T11:44:20;97199.00;;;8.80;75.87
64080;BME280;51042;49.696;10.808;2022-11-23T11:46:50;97185.06;;;8.96;77.62
64080;BME280;51042;49.696;10.808;2022-11-23T11:49:42;97195.91;;;9.27;76.68
64080;BME280;51042;49.696;10.808;2022-11-23T11:54:45;97193.63;;;10.40;72.41
64080;BME280;51042;49.696;10.808;2022-11-23T11:57:34;97190.28;;;10.69;69.92
64080;BME280;51042;49.696;10.808;2022-11-23T12:00:06;97189.94;;;10.76;68.74
64080;BME280;51042;49.696;10.808;2022-11-23T12:08:01;97187.81;;;9.41;72.04
64080;BME280;51042;49.696;10.808;2022-11-23T12:13:23;97184.56;;;8.79;78.09
64080;BME280;51042;49.696;10.808;2022-11-23T12:15:56;97183.88;;;9.52;75.86
64080;BME280;51042;49.696;10.808;2022-11-23T12:30:20;97180.91;;;10.52;70.20
64080;BME280;51042;49.696;10.808;2022-11-23T12:38:28;97178.28;;;10.57;71.18
64080;BME280;51042;49.696;10.808;2022-11-23T12:46:40;97158.22;;;10.75;69.63
64080;BME280;51042;49.696;10.808;2022-11-23T12:56:50;97146.66;;;10.47;70.46
64080;BME280;51042;49.696;10.808;2022-11-23T12:59:24;97140.19;;;10.59;70.63
64080;BME280;51042;49.696;10.808;2022-11-23T13:02:00;97145.03;;;10.64;70.11
64080;BME280;51042;49.696;10.808;2022-11-23T13:12:25;97125.22;;;9.86;69.62
64080;BME280;51042;49.696;10.808;2022-11-23T13:23:23;97131.97;;;9.66;70.93
64080;BME280;51042;49.696;10.808;2022-11-23T13:26:10;97124.06;;;9.68;71.49
64080;BME280;51042;49.696;10.808;2022-11-23T13:28:37;97133.94;;;9.66;71.62
64080;BME280;51042;49.696;10.808;2022-11-23T13:33:47;97118.84;;;9.79;72.74
64080;BME280;51042;49.696;10.808;2022-11-23T13:38:55;97124.19;;;9.83;72.05
64080;BME280;51042;49.696;10.808;2022-11-23T13:43:56;97123.75;;;9.66;71.47
64080;BME280;51042;49.696;10.808;2022-11-23T13:46:55;97123.00;;;9.57;72.97
64080;BME280;51042;49.696;10.808;2022-11-23T13:49:30;97116.19;;;9.52;72.75
64080;BME280;51042;49.696;10.808;2022-11-23T13:52:03;97108.28;;;9.36;72.61
64080;BME280;51042;49.696;10.808;2022-11-23T13:54:30;97108.47;;;9.23;72.86
64080;BME280;51042;49.696;10.808;2022-11-23T13:56:56;97110.59;;;9.10;74.23
64080;BME280;51042;49.696;10.808;2022-11-23T13:59:30;97112.88;;;9.21;74.80
64080;BME280;51042;49.696;10.808;2022-11-23T14:04:32;97099.03;;;8.97;74.94
64080;BME280;51042;49.696;10.808;2022-11-23T14:10:16;97092.66;;;8.91;75.94
64080;BME280;51042;49.696;10.808;2022-11-23T14:13:03;97101.44;;;8.95;75.62
64080;BME280;51042;49.696;10.808;2022-11-23T14:15:38;97091.72;;;8.85;75.24
64080;BME280;51042;49.696;10.808;2022-11-23T14:21:13;97094.31;;;8.88;76.83
64080;BME280;51042;49.696;10.808;2022-11-23T14:29:19;97098.69;;;8.77;77.07
64080;BME280;51042;49.696;10.808;2022-11-23T14:35:07;97100.66;;;8.58;77.87
64080;BME280;51042;49.696;10.808;2022-11-23T14:40:27;97106.53;;;8.38;78.22
64080;BME280;51042;49.696;10.808;2022-11-23T14:43:01;97102.25;;;8.28;78.77
64080;BME280;51042;49.696;10.808;2022-11-23T14:45:28;97110.22;;;8.13;79.63
64080;BME280;51042;49.696;10.808;2022-11-23T14:47:56;97103.81;;;7.98;79.66
64080;BME280;51042;49.696;10.808;2022-11-23T14:50:42;97104.78;;;7.83;80.62
64080;BME280;51042;49.696;10.808;2022-11-23T14:53:08;97104.25;;;7.66;80.88
64080;BME280;51042;49.696;10.808;2022-11-23T14:55:34;97103.38;;;7.47;81.85
64080;BME280;51042;49.696;10.808;2022-11-23T14:58:01;97101.47;;;7.35;81.76
64080;BME280;51042;49.696;10.808;2022-11-23T15:00:38;97100.78;;;7.22;82.44
64080;BME280;51042;49.696;10.808;2022-11-23T15:03:06;97106.75;;;7.08;83.26
64080;BME280;51042;49.696;10.808;2022-11-23T15:05:39;97100.59;;;6.94;83.35